Time;durP1;ratioP1;P1;durP2;ratioP2;P2;SDS_P1;SDS_P2;PMS_P1;PMS_P2;Temp;Humidity;BMP_temperature;BMP_pressure;BME280_temperature;BME280_humidity;BME280_pressure;Samples;Min_cycle;Max_cycle;Signal;HPM_P1;HPM_P2
2022/01/07 00:01:30;;;;;;;6.30;3.77;;;3.60;91.00;;;;;;5012487;28;20421;-73
2022/01/07 00:03:56;;;;;;;11.20;5.17;;;3.60;90.90;;;;;;4995184;28;20422;-73
2022/01/07 00:06:22;;;;;;;13.30;4.13;;;3.60;90.90;;;;;;5013275;28;20478;-72
2022/01/07 00:08:48;;;;;;;13.00;4.43;;;3.60;90.90;;;;;;5011786;28;20505;-72
2022/01/07 00:11:14;;;;;;;11.30;4.10;;;3.60;90.90;;;;;;4995701;28;20199;-73
2022/01/07 00:13:40;;;;;;;5.60;2.97;;;3.60;91.00;;;;;;5011178;28;20171;-72
2022/01/07 00:16:05;;;;;;;14.60;4.70;;;3.60;91.00;;;;;;5012577;28;20450;-72
2022/01/07 00:18:32;;;;;;;12.37;3.70;;;3.60;91.10;;;;;;5011916;28;20621;-72
2022/01/07 00:20:58;;;;;;;7.60;3.83;;;3.60;91.10;;;;;;5011209;28;20171;-73
2022/01/07 00:23:24;;;;;;;8.90;4.20;;;3.50;90.90;;;;;;5012631;28;20402;-72
2022/01/07 00:25:50;;;;;;;11.87;4.10;;;3.50;91.00;;;;;;5011804;28;20455;-73
2022/01/07 00:28:16;;;;;;;10.73;3.53;;;3.50;91.10;;;;;;5012520;28;20190;-73
2022/01/07 00:30:42;;;;;;;4.13;3.27;;;3.40;91.20;;;;;;5014398;28;20410;-72
2022/01/07 00:33:08;;;;;;;11.37;5.03;;;3.40;91.40;;;;;;5016716;28;20457;-76
2022/01/07 00:35:35;;;;;;;13.00;3.67;;;3.40;91.50;;;;;;5003441;28;20259;-72
2022/01/07 00:38:01;;;;;;;7.73;3.13;;;3.30;91.70;;;;;;5031727;28;20429;-73
2022/01/07 00:40:26;;;;;;;11.23;3.77;;;3.30;91.80;;;;;;5033056;28;20409;-72
2022/01/07 00:42:53;;;;;;;8.93;3.80;;;3.20;91.90;;;;;;5026606;28;20190;-73
2022/01/07 00:45:21;;;;;;;5.07;3.23;;;3.20;92.00;;;;;;5021949;28;20956;-74
2022/01/07 00:47:47;;;;;;;8.67;4.20;;;3.10;92.10;;;;;;5022473;28;20809;-73
2022/01/07 00:50:14;;;;;;;11.17;4.13;;;3.10;92.30;;;;;;5004243;28;20425;-74
2022/01/07 00:52:40;;;;;;;11.23;3.73;;;3.10;92.30;;;;;;5019104;28;20406;-71
2022/01/07 00:55:07;;;;;;;15.33;3.90;;;3.00;92.50;;;;;;5020214;28;20414;-73
2022/01/07 00:57:33;;;;;;;6.47;3.50;;;3.00;92.50;;;;;;5015816;28;20429;-73
2022/01/07 01:00:08;;;;;;;6.57;3.20;;;3.00;92.60;;;;;;5000476;28;20456;-73
2022/01/07 01:02:34;;;;;;;10.40;4.17;;;3.00;92.60;;;;;;5021043;28;20409;-72
2022/01/07 01:05:01;;;;;;;10.10;4.57;;;3.00;92.80;;;;;;5022732;28;20413;-72
2022/01/07 01:07:27;;;;;;;8.77;4.80;;;3.00;92.90;;;;;;5023049;28;20179;-73
2022/01/07 01:09:53;;;;;;;10.37;5.03;;;3.00;92.90;;;;;;5004297;28;20418;-71
2022/01/07 01:12:18;;;;;;;10.93;4.90;;;3.00;92.90;;;;;;5022458;28;20428;-73
2022/01/07 01:14:44;;;;;;;14.07;4.77;;;2.90;93.00;;;;;;5024031;28;20418;-72
2022/01/07 01:17:10;;;;;;;10.43;4.83;;;2.90;93.10;;;;;;5009740;28;20271;-74
2022/01/07 01:19:37;;;;;;;6.67;4.20;;;2.90;93.20;;;;;;5005336;28;20214;-72
2022/01/07 01:22:03;;;;;;;11.53;4.33;;;2.90;93.30;;;;;;5006662;28;20171;-72
2022/01/07 01:24:29;;;;;;;13.90;4.77;;;3.00;93.40;;;;;;5025196;28;20410;-73
2022/01/07 01:26:54;;;;;;;12.67;5.03;;;3.00;93.50;;;;;;5023879;28;20429;-73
2022/01/07 01:29:22;;;;;;;12.37;4.67;;;3.00;93.50;;;;;;5021618;28;20603;-74
2022/01/07 01:31:48;;;;;;;14.00;5.03;;;3.00;93.40;;;;;;5024916;28;20171;-73
2022/01/07 01:34:14;;;;;;;15.37;4.30;;;3.00;93.30;;;;;;5021239;28;20414;-72
2022/01/07 01:36:40;;;;;;;14.33;4.27;;;3.10;93.40;;;;;;5021736;28;20421;-73
2022/01/07 01:39:08;;;;;;;10.90;5.30;;;3.10;93.40;;;;;;5023223;28;20516;-72
2022/01/07 01:41:34;;;;;;;15.03;5.17;;;3.10;93.40;;;;;;5019847;28;20214;-72
2022/01/07 01:44:00;;;;;;;17.40;4.80;;;3.10;93.50;;;;;;5019719;28;20421;-74
2022/01/07 01:46:26;;;;;;;7.57;4.17;;;3.10;93.60;;;;;;4984541;28;20437;-72
2022/01/07 01:48:52;;;;;;;11.13;4.57;;;3.10;93.40;;;;;;5023028;28;20221;-72
2022/01/07 01:51:17;;;;;;;9.03;3.67;;;3.10;93.40;;;;;;5001895;28;20907;-71
2022/01/07 01:53:43;;;;;;;8.53;4.07;;;3.10;93.30;;;;;;5014718;28;20193;-74
2022/01/07 01:56:09;;;;;;;10.20;4.53;;;3.10;93.30;;;;;;5020549;28;20167;-73
2022/01/07 01:58:35;;;;;;;14.20;4.00;;;3.10;93.30;;;;;;4998318;28;20202;-73
2022/01/07 02:01:02;;;;;;;11.50;4.93;;;3.10;93.20;;;;;;5015057;28;20397;-73
2022/01/07 02:03:27;;;;;;;11.83;4.87;;;3.10;93.20;;;;;;5014725;28;20195;-72
2022/01/07 02:05:54;;;;;;;16.97;4.57;;;3.10;93.00;;;;;;4996285;28;20466;-72
2022/01/07 02:08:20;;;;;;;8.77;3.90;;;3.10;93.10;;;;;;5014941;28;20723;-72
2022/01/07 02:10:46;;;;;;;11.13;3.60;;;3.20;93.10;;;;;;4999474;28;20811;-73
2022/01/07 02:13:12;;;;;;;14.20;4.93;;;3.20;93.10;;;;;;5016788;28;20708;-72
2022/01/07 02:15:38;;;;;;;11.03;4.00;;;3.20;93.10;;;;;;4998471;28;20410;-72
2022/01/07 02:18:04;;;;;;;10.60;4.40;;;3.20;93.10;;;;;;5015970;28;20441;-72
2022/01/07 02:20:30;;;;;;;13.10;3.90;;;3.20;93.20;;;;;;5015704;28;20163;-73
2022/01/07 02:22:56;;;;;;;5.20;3.50;;;3.20;93.20;;;;;;5015730;28;20473;-73
2022/01/07 02:25:23;;;;;;;7.60;3.70;;;3.20;93.30;;;;;;5017307;28;20170;-73
2022/01/07 02:27:49;;;;;;;15.43;4.63;;;3.20;93.30;;;;;;4998148;28;20430;-73
2022/01/07 02:30:18;;;;;;;8.97;3.93;;;3.20;93.40;;;;;;5015299;28;20432;-72
2022/01/07 02:32:46;;;;;;;9.87;4.03;;;3.20;93.30;;;;;;5014943;28;20793;-72
2022/01/07 02:35:13;;;;;;;8.73;3.80;;;3.30;93.40;;;;;;5014046;28;20425;-72
2022/01/07 02:37:39;;;;;;;11.57;5.10;;;3.30;93.40;;;;;;5012298;28;20584;-72
2022/01/07 02:40:07;;;;;;;6.73;3.47;;;3.30;93.30;;;;;;5025086;28;20469;-74
2022/01/07 02:42:33;;;;;;;8.10;4.27;;;3.40;93.20;;;;;;5002475;28;20635;-73
2022/01/07 02:44:59;;;;;;;8.73;3.47;;;3.40;93.10;;;;;;5002061;28;20452;-73
2022/01/07 02:47:30;;;;;;;7.50;3.80;;;3.40;93.00;;;;;;5017447;28;20851;-73
2022/01/07 02:50:04;;;;;;;8.60;3.50;;;3.40;93.00;;;;;;5017210;28;20406;-72
2022/01/07 02:52:30;;;;;;;7.10;4.03;;;3.50;93.00;;;;;;5005320;28;20453;-72
2022/01/07 02:54:56;;;;;;;9.87;4.10;;;3.50;93.10;;;;;;5015162;28;20429;-73
2022/01/07 02:57:21;;;;;;;9.63;3.90;;;3.50;93.20;;;;;;5014717;28;20434;-73
2022/01/07 02:59:47;;;;;;;7.07;2.60;;;3.50;93.30;;;;;;5020519;28;20283;-72
2022/01/07 03:02:13;;;;;;;8.93;3.40;;;3.60;93.40;;;;;;5004793;28;20217;-71
2022/01/07 03:04:39;;;;;;;10.60;3.70;;;3.60;93.30;;;;;;5021290;28;20915;-72
2022/01/07 03:07:04;;;;;;;6.27;2.77;;;3.60;93.30;;;;;;5023082;28;20183;-74
2022/01/07 03:09:30;;;;;;;5.57;2.67;;;3.60;93.00;;;;;;5023772;28;20616;-73
2022/01/07 03:11:56;;;;;;;13.03;4.90;;;3.50;93.00;;;;;;5015016;28;20691;-73
2022/01/07 03:14:22;;;;;;;6.67;3.50;;;3.50;93.10;;;;;;4995454;28;20525;-72
2022/01/07 03:16:48;;;;;;;8.83;3.83;;;3.40;93.30;;;;;;4997619;28;20179;-73
2022/01/07 03:19:13;;;;;;;5.03;3.60;;;3.40;93.50;;;;;;5015455;28;20461;-72
2022/01/07 03:21:39;;;;;;;11.63;3.20;;;3.30;93.80;;;;;;5026001;28;20171;-71
2022/01/07 03:24:05;;;;;;;5.30;3.07;;;3.30;93.90;;;;;;5016702;28;20167;-73
2022/01/07 03:26:31;;;;;;;9.80;3.50;;;3.30;94.20;;;;;;5011715;28;20254;-73
2022/01/07 03:28:56;;;;;;;13.07;2.90;;;3.30;94.30;;;;;;5013259;28;20414;-73
2022/01/07 03:31:22;;;;;;;5.40;3.50;;;3.20;94.30;;;;;;5012516;28;20170;-73
2022/01/07 03:33:47;;;;;;;6.60;3.60;;;3.20;94.40;;;;;;5013896;28;20191;-73
2022/01/07 03:36:13;;;;;;;5.70;3.10;;;3.20;94.40;;;;;;5014855;28;20563;-73
2022/01/07 03:38:39;;;;;;;7.20;3.10;;;3.20;94.30;;;;;;5012896;28;20199;-74
2022/01/07 03:41:04;;;;;;;6.40;2.80;;;3.20;94.40;;;;;;5015550;28;20178;-73
2022/01/07 03:43:31;;;;;;;11.43;3.27;;;3.20;94.40;;;;;;5018640;28;20242;-73
2022/01/07 03:45:56;;;;;;;5.73;3.10;;;3.10;94.50;;;;;;5012284;28;20179;-73
2022/01/07 03:48:22;;;;;;;9.90;3.87;;;3.20;94.50;;;;;;5012591;28;20847;-73
2022/01/07 03:50:48;;;;;;;5.40;2.60;;;3.20;94.70;;;;;;5012623;28;20768;-73
2022/01/07 03:53:13;;;;;;;5.97;2.80;;;3.20;94.70;;;;;;5011073;28;20171;-73
2022/01/07 03:55:39;;;;;;;5.43;2.73;;;3.20;94.80;;;;;;5012240;28;20270;-72
2022/01/07 03:58:05;;;;;;;5.23;2.63;;;3.20;94.80;;;;;;5012420;28;20190;-72
2022/01/07 04:00:37;;;;;;;7.13;3.53;;;3.20;94.80;;;;;;4994677;28;20203;-72
2022/01/07 04:03:09;;;;;;;4.87;3.60;;;3.20;94.80;;;;;;5012366;28;20203;-73
2022/01/07 04:05:35;;;;;;;13.97;3.10;;;3.20;94.80;;;;;;5011657;28;20414;-72
2022/01/07 04:08:01;;;;;;;6.90;2.60;;;3.20;94.90;;;;;;5012110;28;20426;-73
2022/01/07 04:10:26;;;;;;;8.83;2.53;;;3.20;95.10;;;;;;5011748;28;20414;-74
2022/01/07 04:12:52;;;;;;;7.80;2.57;;;3.20;95.10;;;;;;5012167;28;20410;-73
2022/01/07 04:15:21;;;;;;;11.40;2.83;;;3.20;95.10;;;;;;5012115;28;20644;-73
2022/01/07 04:17:50;;;;;;;7.00;2.50;;;3.20;95.10;;;;;;5012263;28;20183;-73
2022/01/07 04:20:18;;;;;;;7.90;2.63;;;3.20;95.20;;;;;;5012301;28;20462;-73
2022/01/07 04:22:44;;;;;;;6.20;2.97;;;3.20;95.10;;;;;;4993917;28;20525;-73
2022/01/07 04:25:18;;;;;;;5.13;2.57;;;3.10;95.10;;;;;;5013073;28;20402;-73
2022/01/07 04:28:05;;;;;;;6.47;2.93;;;3.20;95.10;;;;;;5014745;28;20523;-73
2022/01/07 04:30:34;;;;;;;10.13;2.80;;;3.20;95.00;;;;;;5010436;28;20428;-71
2022/01/07 04:33:02;;;;;;;4.10;2.50;;;3.20;95.00;;;;;;5010320;28;20504;-74
2022/01/07 04:35:28;;;;;;;7.93;2.80;;;3.30;94.90;;;;;;4994325;28;20492;-73
2022/01/07 04:37:54;;;;;;;11.53;2.70;;;3.30;94.80;;;;;;5011408;28;20834;-73
2022/01/07 04:40:20;;;;;;;5.37;2.60;;;3.30;94.80;;;;;;5010873;28;20483;-72
2022/01/07 04:42:47;;;;;;;11.10;2.37;;;3.30;94.60;;;;;;5012017;28;20225;-73
2022/01/07 04:45:13;;;;;;;6.13;2.53;;;3.30;94.80;;;;;;4993654;28;20788;-74
2022/01/07 04:47:40;;;;;;;8.90;3.73;;;3.30;94.80;;;;;;5012570;28;20434;-73
2022/01/07 04:50:09;;;;;;;15.00;4.07;;;3.20;94.70;;;;;;5013193;28;20505;-74
2022/01/07 04:52:35;;;;;;;6.73;2.60;;;3.20;94.90;;;;;;5013040;28;20958;-73
2022/01/07 04:55:01;;;;;;;6.93;2.87;;;3.20;94.90;;;;;;5011012;28;20420;-74
2022/01/07 04:57:26;;;;;;;4.63;2.93;;;3.20;94.80;;;;;;5011049;28;20429;-73
2022/01/07 04:59:52;;;;;;;7.13;2.53;;;3.20;94.80;;;;;;5011433;28;20450;-73
2022/01/07 05:02:20;;;;;;;7.43;2.93;;;3.20;94.70;;;;;;5010286;28;20548;-73
2022/01/07 05:04:46;;;;;;;3.50;1.73;;;3.20;94.80;;;;;;4995068;28;20170;-73
2022/01/07 05:07:12;;;;;;;3.60;3.10;;;3.20;94.70;;;;;;5011032;28;20532;-73
2022/01/07 05:09:38;;;;;;;5.43;2.50;;;3.30;94.70;;;;;;5012169;28;20453;-73
2022/01/07 05:12:04;;;;;;;12.43;3.20;;;3.30;94.60;;;;;;5011577;28;20410;-73
2022/01/07 05:14:31;;;;;;;3.77;3.43;;;3.30;94.80;;;;;;5011735;28;20163;-73
2022/01/07 05:16:57;;;;;;;7.33;3.97;;;3.30;94.70;;;;;;5011322;28;20500;-73
2022/01/07 05:19:23;;;;;;;7.97;2.77;;;3.30;94.60;;;;;;5011465;28;20449;-73
2022/01/07 05:21:49;;;;;;;4.60;2.43;;;3.30;94.50;;;;;;4996469;28;20829;-72
2022/01/07 05:24:14;;;;;;;7.97;3.03;;;3.40;94.50;;;;;;5015944;28;20171;-75
2022/01/07 05:26:40;;;;;;;8.33;2.90;;;3.40;94.60;;;;;;5014332;28;20274;-72
2022/01/07 05:29:06;;;;;;;3.73;2.90;;;3.40;94.50;;;;;;5017103;28;20195;-73
2022/01/07 05:31:32;;;;;;;10.10;3.30;;;3.40;94.50;;;;;;5001373;28;20226;-74
2022/01/07 05:33:57;;;;;;;12.23;3.03;;;3.40;94.40;;;;;;4996951;28;20179;-72
2022/01/07 05:36:23;;;;;;;14.30;6.63;;;3.40;94.60;;;;;;5014097;28;20520;-72
2022/01/07 05:38:49;;;;;;;5.80;2.87;;;3.40;94.70;;;;;;5013146;28;20214;-72
2022/01/07 05:41:16;;;;;;;7.50;2.70;;;3.40;94.80;;;;;;4997200;28;20402;-71
2022/01/07 05:43:41;;;;;;;6.60;2.60;;;3.40;94.80;;;;;;5014147;28;20596;-73
2022/01/07 05:46:10;;;;;;;4.10;2.50;;;3.40;95.00;;;;;;5014427;28;20430;-73
2022/01/07 05:48:36;;;;;;;12.10;3.57;;;3.40;94.90;;;;;;5014805;28;20178;-73
2022/01/07 05:51:02;;;;;;;11.00;3.27;;;3.40;95.00;;;;;;5014607;28;20418;-73
2022/01/07 05:53:28;;;;;;;6.07;2.90;;;3.50;95.10;;;;;;5014755;28;20497;-72
2022/01/07 05:55:53;;;;;;;5.03;2.80;;;3.50;95.10;;;;;;5013009;28;20179;-73
2022/01/07 05:58:19;;;;;;;5.83;3.07;;;3.50;95.10;;;;;;5012832;28;20591;-73
2022/01/07 06:00:45;;;;;;;7.67;2.63;;;3.50;95.20;;;;;;5014366;28;20160;-73
2022/01/07 06:03:10;;;;;;;8.63;2.33;;;3.50;95.40;;;;;;5014935;28;20159;-72
2022/01/07 06:05:36;;;;;;;6.17;2.67;;;3.60;95.40;;;;;;5014415;28;20190;-73
2022/01/07 06:08:02;;;;;;;5.27;3.23;;;3.60;95.40;;;;;;5014161;28;20209;-73
2022/01/07 06:10:28;;;;;;;6.10;2.70;;;3.60;94.70;;;;;;5014221;28;20167;-73
2022/01/07 06:12:54;;;;;;;6.93;2.60;;;3.70;94.60;;;;;;5014321;28;20417;-73
2022/01/07 06:15:19;;;;;;;3.10;1.80;;;3.70;94.30;;;;;;5013565;28;20170;-72
2022/01/07 06:17:45;;;;;;;10.80;2.13;;;3.70;94.20;;;;;;5013264;28;20233;-72
2022/01/07 06:20:11;;;;;;;7.90;2.50;;;3.80;94.20;;;;;;5014300;28;20638;-73
2022/01/07 06:22:36;;;;;;;6.60;1.80;;;3.80;94.30;;;;;;5012243;28;20221;-72
2022/01/07 06:25:04;;;;;;;7.23;2.47;;;3.80;94.20;;;;;;5013165;28;20163;-73
2022/01/07 06:27:30;;;;;;;4.20;2.90;;;3.80;94.30;;;;;;5013556;28;20274;-73
2022/01/07 06:29:57;;;;;;;6.23;2.37;;;3.80;94.50;;;;;;4996094;28;20414;-73
2022/01/07 06:32:26;;;;;;;6.30;2.07;;;3.80;94.50;;;;;;5014457;28;20756;-72
2022/01/07 06:34:52;;;;;;;8.97;2.60;;;3.80;94.70;;;;;;5014316;28;20414;-72
2022/01/07 06:37:18;;;;;;;4.83;2.23;;;3.80;94.70;;;;;;5015596;28;20437;-73
2022/01/07 06:39:44;;;;;;;3.63;2.10;;;3.90;94.90;;;;;;5016466;28;20460;-73
2022/01/07 06:42:10;;;;;;;8.20;3.13;;;3.90;94.80;;;;;;5014088;28;20159;-73
2022/01/07 06:44:36;;;;;;;3.80;2.20;;;3.90;94.80;;;;;;5017639;28;20410;-73
2022/01/07 06:47:03;;;;;;;2.80;2.03;;;3.90;95.20;;;;;;5014923;28;20498;-72
2022/01/07 06:49:29;;;;;;;4.67;2.10;;;3.90;94.80;;;;;;5013138;28;20410;-72
2022/01/07 06:51:55;;;;;;;3.20;1.70;;;3.90;94.80;;;;;;4995592;28;20414;-73
2022/01/07 06:54:21;;;;;;;3.87;2.10;;;3.90;94.70;;;;;;4995606;28;20707;-72
2022/01/07 06:56:46;;;;;;;4.40;2.10;;;3.90;94.60;;;;;;5012651;28;20433;-73
2022/01/07 06:59:13;;;;;;;4.50;2.40;;;3.90;94.60;;;;;;5011645;28;20202;-72
2022/01/07 07:01:47;;;;;;;5.17;2.00;;;3.90;94.60;;;;;;5012490;28;20258;-72
2022/01/07 07:04:14;;;;;;;5.07;1.83;;;4.00;94.60;;;;;;4995498;28;20841;-71
2022/01/07 07:06:39;;;;;;;3.90;1.43;;;4.00;94.50;;;;;;5012835;28;20429;-73
2022/01/07 07:09:05;;;;;;;5.93;2.20;;;4.00;94.40;;;;;;5013207;28;20406;-73
2022/01/07 07:11:32;;;;;;;5.13;2.40;;;4.00;94.50;;;;;;5013010;28;20720;-74
2022/01/07 07:13:57;;;;;;;3.60;1.70;;;4.00;94.40;;;;;;5012641;28;20505;-74
2022/01/07 07:16:23;;;;;;;6.50;1.80;;;4.10;94.30;;;;;;5011373;28;20525;-73
2022/01/07 07:18:49;;;;;;;3.17;1.90;;;4.10;93.70;;;;;;5009333;28;20207;-72
2022/01/07 07:21:15;;;;;;;7.23;2.30;;;4.10;93.80;;;;;;5011858;28;20171;-73
2022/01/07 07:23:41;;;;;;;5.03;1.50;;;4.10;93.80;;;;;;5011286;28;20253;-72
2022/01/07 07:26:06;;;;;;;4.50;2.53;;;4.10;93.70;;;;;;5013503;28;20195;-73
2022/01/07 07:28:36;;;;;;;3.10;1.20;;;4.10;93.70;;;;;;5013439;28;20506;-71
2022/01/07 07:31:11;;;;;;;3.70;1.53;;;4.10;93.50;;;;;;5012078;28;20187;-74
2022/01/07 07:33:56;;;;;;;4.30;1.87;;;4.10;93.50;;;;;;5012645;28;20463;-74
2022/01/07 07:36:31;;;;;;;2.70;1.40;;;4.10;93.50;;;;;;5012366;28;20468;-73
2022/01/07 07:39:05;;;;;;;2.90;1.67;;;4.20;93.50;;;;;;5012344;28;20811;-73
2022/01/07 07:41:32;;;;;;;2.97;1.93;;;4.20;93.50;;;;;;4994855;28;20436;-73
2022/01/07 07:43:59;;;;;;;3.13;2.33;;;4.20;93.40;;;;;;5011269;28;20430;-73
2022/01/07 07:46:31;;;;;;;5.73;2.30;;;4.30;93.30;;;;;;4994339;28;20457;-73
2022/01/07 07:49:00;;;;;;;5.57;2.20;;;4.30;93.30;;;;;;4994492;28;20441;-70
2022/01/07 07:51:26;;;;;;;3.33;2.03;;;4.30;93.20;;;;;;5011665;28;20480;-73
2022/01/07 07:53:51;;;;;;;4.00;1.77;;;4.30;93.00;;;;;;5012340;28;20868;-72
2022/01/07 07:56:17;;;;;;;5.60;2.33;;;4.30;92.70;;;;;;5013053;28;20444;-72
2022/01/07 07:58:43;;;;;;;8.03;2.00;;;4.30;92.90;;;;;;5012364;28;20191;-72
2022/01/07 08:01:10;;;;;;;7.10;2.10;;;4.30;92.80;;;;;;5012665;28;20529;-73
2022/01/07 08:03:36;;;;;;;7.63;2.07;;;4.30;92.90;;;;;;5011990;28;20422;-76
2022/01/07 08:06:01;;;;;;;4.33;1.90;;;4.30;93.00;;;;;;5008878;28;20418;-74
2022/01/07 08:08:28;;;;;;;5.57;2.17;;;4.40;93.00;;;;;;5010875;28;20930;-77
2022/01/07 08:10:57;;;;;;;3.23;1.63;;;4.40;93.00;;;;;;5012265;28;20163;-74
2022/01/07 08:13:28;;;;;;;3.40;1.80;;;4.40;92.80;;;;;;5011464;28;20428;-76
2022/01/07 08:15:58;;;;;;;2.87;1.50;;;4.40;92.90;;;;;;4994243;28;20475;-75
2022/01/07 08:18:28;;;;;;;5.33;2.20;;;4.50;92.90;;;;;;5012075;28;20474;-76
2022/01/07 08:20:56;;;;;;;4.80;2.10;;;4.50;92.90;;;;;;5011025;28;20413;-77
2022/01/07 08:23:22;;;;;;;2.53;1.73;;;4.50;92.90;;;;;;5003775;28;20519;-77
2022/01/07 08:25:48;;;;;;;5.07;1.90;;;4.60;92.70;;;;;;5005756;28;20519;-76
2022/01/07 08:28:15;;;;;;;2.90;1.40;;;4.60;92.80;;;;;;4980428;28;20336;-77
2022/01/07 08:31:12;;;;;;;5.93;2.10;;;4.60;92.80;;;;;;4997309;28;20425;-77
2022/01/07 08:36:30;;;;;;;2.17;1.20;;;4.60;92.30;;;;;;5001648;28;20445;-76
2022/01/07 08:38:56;;;;;;;4.93;1.67;;;4.60;92.50;;;;;;5016943;28;20468;-77
2022/01/07 08:41:26;;;;;;;2.50;1.80;;;4.60;92.60;;;;;;5006363;28;20521;-77
2022/01/07 08:43:52;;;;;;;4.70;1.63;;;4.70;92.80;;;;;;5024503;28;20456;-77
2022/01/07 08:46:18;;;;;;;5.47;1.50;;;4.70;92.80;;;;;;5021095;28;20426;-78
2022/01/07 08:48:44;;;;;;;3.07;1.67;;;4.70;92.40;;;;;;5015322;28;20421;-77
2022/01/07 08:51:10;;;;;;;3.53;2.20;;;4.70;92.70;;;;;;5021392;28;20171;-78
2022/01/07 08:53:37;;;;;;;2.77;1.57;;;4.70;92.70;;;;;;5007375;28;20461;-77
2022/01/07 08:56:03;;;;;;;2.60;1.47;;;4.80;92.90;;;;;;5020846;28;20410;-76
2022/01/07 08:58:29;;;;;;;3.73;1.23;;;4.80;93.00;;;;;;5021353;28;20426;-78
2022/01/07 09:00:56;;;;;;;1.90;1.57;;;4.80;92.90;;;;;;5015372;28;20828;-78
2022/01/07 09:03:22;;;;;;;2.53;1.47;;;4.90;92.90;;;;;;5008356;28;20175;-77
2022/01/07 09:05:48;;;;;;;4.07;1.80;;;4.90;92.70;;;;;;5002021;28;20472;-77
2022/01/07 09:08:13;;;;;;;4.30;1.13;;;4.90;92.90;;;;;;5004322;28;20854;-77
2022/01/07 09:10:40;;;;;;;2.27;1.43;;;4.90;92.30;;;;;;5006922;28;20168;-78
2022/01/07 09:13:06;;;;;;;2.90;1.80;;;4.90;92.40;;;;;;5025855;28;20179;-77
2022/01/07 09:15:32;;;;;;;10.90;4.87;;;4.90;92.50;;;;;;5009229;28;20425;-77
2022/01/07 09:17:58;;;;;;;3.37;2.00;;;5.00;92.50;;;;;;5028123;28;20426;-79
2022/01/07 09:20:25;;;;;;;3.87;1.70;;;5.00;92.40;;;;;;5028701;28;20525;-77
2022/01/07 09:22:51;;;;;;;4.67;2.00;;;5.00;91.80;;;;;;5017444;28;20419;-78
2022/01/07 09:25:17;;;;;;;3.33;2.40;;;5.00;91.80;;;;;;5022382;28;20464;-76
2022/01/07 09:27:43;;;;;;;2.53;1.80;;;5.00;92.10;;;;;;5020148;28;20446;-76
2022/01/07 09:30:11;;;;;;;2.30;1.40;;;5.10;92.10;;;;;;5006584;28;20425;-77
2022/01/07 09:32:37;;;;;;;2.07;1.47;;;5.10;91.70;;;;;;5028619;28;20193;-78
2022/01/07 09:35:04;;;;;;;3.40;1.33;;;5.10;91.80;;;;;;5028819;28;20441;-77
2022/01/07 09:37:30;;;;;;;5.97;1.70;;;5.20;91.30;;;;;;5022897;28;20800;-78
2022/01/07 09:39:56;;;;;;;2.33;1.63;;;5.10;91.40;;;;;;5027359;28;20564;-76
2022/01/07 09:42:22;;;;;;;1.97;1.47;;;5.10;91.20;;;;;;5012146;28;20186;-75
2022/01/07 09:44:48;;;;;;;1.60;1.20;;;5.10;91.10;;;;;;5011850;28;20297;-75
2022/01/07 09:47:14;;;;;;;2.40;1.10;;;5.20;91.10;;;;;;5028846;28;20282;-76
2022/01/07 09:49:41;;;;;;;3.00;1.60;;;5.20;91.40;;;;;;5024666;28;21261;-79
2022/01/07 09:52:08;;;;;;;8.10;3.73;;;5.20;91.00;;;;;;5019041;28;20186;-77
2022/01/07 09:54:36;;;;;;;2.57;1.50;;;5.10;90.90;;;;;;5020834;28;20807;-77
2022/01/07 09:57:07;;;;;;;5.03;1.50;;;5.20;91.40;;;;;;5042289;28;20523;-76
2022/01/07 09:59:33;;;;;;;5.83;2.13;;;5.20;91.20;;;;;;5008210;28;20501;-78
2022/01/07 10:02:07;;;;;;;8.63;2.50;;;5.30;91.60;;;;;;5019525;28;20422;-77
2022/01/07 10:04:39;;;;;;;6.03;2.70;;;5.30;91.10;;;;;;5001439;28;20421;-77
2022/01/07 10:07:12;;;;;;;5.07;1.70;;;5.30;90.50;;;;;;5036717;28;20437;-76
2022/01/07 10:09:42;;;;;;;5.50;1.70;;;5.20;91.00;;;;;;5032235;28;20776;-78
2022/01/07 10:12:08;;;;;;;5.00;1.87;;;5.20;91.20;;;;;;5039841;28;20405;-78
2022/01/07 10:14:36;;;;;;;3.87;1.90;;;5.20;90.80;;;;;;5039822;28;21224;-79
2022/01/07 10:17:03;;;;;;;7.37;1.77;;;5.20;91.00;;;;;;5025507;28;20430;-78
2022/01/07 10:19:30;;;;;;;9.97;5.73;;;5.20;91.20;;;;;;5008198;28;20544;-77
2022/01/07 10:22:04;;;;;;;3.20;1.40;;;5.20;91.10;;;;;;5020727;28;20601;-77
2022/01/07 10:24:30;;;;;;;3.80;2.00;;;5.30;91.10;;;;;;5024514;28;20918;-78
2022/01/07 10:27:14;;;;;;;2.83;1.47;;;5.30;91.10;;;;;;5034601;28;20444;-78
2022/01/07 10:29:43;;;;;;;3.27;1.27;;;5.50;91.50;;;;;;5023806;28;20183;-78
2022/01/07 10:32:19;;;;;;;5.47;2.10;;;5.60;90.60;;;;;;5025942;28;20426;-78
2022/01/07 10:35:06;;;;;;;4.63;1.90;;;5.90;91.10;;;;;;5045787;28;20510;-78
2022/01/07 10:37:35;;;;;;;2.10;1.20;;;6.00;89.80;;;;;;5028357;28;20451;-78
2022/01/07 10:40:18;;;;;;;4.17;1.60;;;6.00;87.00;;;;;;5043422;28;20489;-76
2022/01/07 10:42:44;;;;;;;4.13;1.50;;;5.90;88.80;;;;;;5023277;28;20614;-77
2022/01/07 10:45:09;;;;;;;36.53;13.93;;;6.00;89.10;;;;;;5040128;28;20408;-78
2022/01/07 10:47:35;;;;;;;3.67;1.80;;;6.00;89.30;;;;;;5039538;28;20507;-77
2022/01/07 10:50:19;;;;;;;2.97;1.40;;;5.90;89.30;;;;;;5039974;28;20179;-77
2022/01/07 10:52:45;;;;;;;3.30;1.53;;;5.90;89.60;;;;;;4998192;28;20182;-78
2022/01/07 10:55:19;;;;;;;3.77;1.97;;;5.90;89.80;;;;;;5022607;28;20490;-78
2022/01/07 10:57:50;;;;;;;3.67;1.40;;;5.90;89.80;;;;;;5026587;28;20437;-78
2022/01/07 11:00:21;;;;;;;1.50;0.90;;;5.90;89.00;;;;;;5021933;28;20450;-76
2022/01/07 11:02:47;;;;;;;2.40;1.17;;;5.90;88.40;;;;;;5003086;28;20563;-77
2022/01/07 11:05:13;;;;;;;4.10;1.93;;;5.90;89.50;;;;;;5017190;28;20415;-78
2022/01/07 11:07:42;;;;;;;7.67;1.60;;;5.90;89.20;;;;;;5026084;28;20742;-77
2022/01/07 11:10:09;;;;;;;4.83;1.23;;;5.90;89.30;;;;;;5033239;28;20461;-77
2022/01/07 11:12:35;;;;;;;2.87;1.67;;;5.90;88.00;;;;;;5017532;28;20545;-76
2022/01/07 11:15:04;;;;;;;6.23;3.40;;;5.90;89.70;;;;;;5015700;28;20441;-77
2022/01/07 11:17:31;;;;;;;4.57;2.43;;;6.00;88.60;;;;;;5015925;28;20543;-79
2022/01/07 11:20:01;;;;;;;2.67;1.30;;;6.20;89.30;;;;;;4986323;28;20454;-76
2022/01/07 11:22:28;;;;;;;5.40;1.50;;;6.40;88.50;;;;;;5026174;28;20425;-77
2022/01/07 11:24:56;;;;;;;1.80;1.20;;;6.60;88.70;;;;;;5030176;28;20425;-76
2022/01/07 11:27:28;;;;;;;1.80;1.03;;;6.90;87.00;;;;;;5010097;28;20442;-77
2022/01/07 11:30:11;;;;;;;3.87;1.40;;;7.00;84.30;;;;;;5009460;28;20896;-76
2022/01/07 11:32:51;;;;;;;2.60;1.10;;;6.80;84.00;;;;;;5030603;28;20426;-77
2022/01/07 11:35:16;;;;;;;2.40;1.50;;;6.70;84.70;;;;;;5026834;28;20422;-77
2022/01/07 11:37:44;;;;;;;3.43;1.60;;;6.70;85.70;;;;;;5023347;28;20485;-77
2022/01/07 11:40:25;;;;;;;2.13;1.30;;;6.60;85.50;;;;;;5016673;28;20188;-76
2022/01/07 11:42:51;;;;;;;10.77;6.60;;;6.50;86.30;;;;;;5026111;28;20428;-77
2022/01/07 11:45:30;;;;;;;1.50;1.23;;;6.50;88.80;;;;;;5018666;28;22287;-76
2022/01/07 11:47:58;;;;;;;2.23;1.17;;;6.70;87.30;;;;;;5018758;28;20195;-76
2022/01/07 11:50:24;;;;;;;1.33;0.90;;;6.90;86.30;;;;;;5005433;28;20414;-75
2022/01/07 11:53:00;;;;;;;2.70;1.00;;;7.10;86.70;;;;;;5008558;28;20542;-76
2022/01/07 11:55:34;;;;;;;1.70;1.10;;;7.20;84.80;;;;;;5016820;28;20440;-77
2022/01/07 11:58:03;;;;;;;2.20;1.70;;;7.20;81.60;;;;;;4986507;28;20504;-77
2022/01/07 12:00:47;;;;;;;2.00;0.83;;;7.10;84.20;;;;;;5020948;28;20460;-77
2022/01/07 12:03:28;;;;;;;2.20;1.20;;;7.10;83.70;;;;;;5023320;28;20521;-77
2022/01/07 12:05:54;;;;;;;1.97;1.00;;;7.00;83.00;;;;;;5008762;28;20566;-76
2022/01/07 12:08:19;;;;;;;2.17;1.40;;;6.90;83.20;;;;;;5016208;28;20440;-77
2022/01/07 12:10:45;;;;;;;2.30;1.33;;;6.80;84.90;;;;;;5028445;28;20174;-78
2022/01/07 12:13:11;;;;;;;2.43;1.57;;;6.80;86.90;;;;;;5015413;28;20360;-77
2022/01/07 12:15:39;;;;;;;2.90;1.60;;;6.90;85.70;;;;;;5008657;28;20222;-77
2022/01/07 12:18:09;;;;;;;1.73;1.43;;;7.00;85.60;;;;;;5020374;28;20277;-76
2022/01/07 12:20:35;;;;;;;3.93;1.87;;;7.00;83.10;;;;;;5010723;28;20472;-77
2022/01/07 12:23:00;;;;;;;4.27;2.67;;;7.00;85.60;;;;;;5012320;28;20517;-77
2022/01/07 12:25:26;;;;;;;5.37;1.77;;;7.10;87.50;;;;;;5008517;28;20181;-77
2022/01/07 12:28:00;;;;;;;2.47;1.20;;;7.30;84.90;;;;;;5000126;28;20328;-76
2022/01/07 12:30:26;;;;;;;4.40;1.70;;;7.30;82.80;;;;;;4996072;28;20179;-77
2022/01/07 12:32:56;;;;;;;8.03;1.73;;;7.20;83.00;;;;;;5010047;28;20441;-75
2022/01/07 12:35:27;;;;;;;8.90;1.93;;;7.00;84.00;;;;;;5007482;28;20801;-77
2022/01/07 12:37:53;;;;;;;4.03;2.53;;;6.90;84.90;;;;;;5006119;28;20793;-76
2022/01/07 12:40:19;;;;;;;10.03;3.60;;;6.70;84.90;;;;;;4997288;28;20520;-74
2022/01/07 12:42:45;;;;;;;6.90;4.23;;;6.60;85.40;;;;;;5019427;28;20187;-76
2022/01/07 12:45:20;;;;;;;9.80;5.77;;;6.60;87.10;;;;;;5006299;28;20537;-77
2022/01/07 12:47:46;;;;;;;8.30;5.30;;;6.60;88.40;;;;;;5017148;28;20444;-78
2022/01/07 12:50:12;;;;;;;4.83;2.83;;;6.80;89.10;;;;;;5021074;28;20517;-76
2022/01/07 12:52:42;;;;;;;9.50;2.63;;;6.90;87.30;;;;;;5003344;28;20244;-77
2022/01/07 12:55:18;;;;;;;4.60;2.50;;;7.00;86.70;;;;;;5012721;28;20464;-77
2022/01/07 12:57:50;;;;;;;7.00;3.70;;;7.00;86.20;;;;;;5009448;28;21028;-76
2022/01/07 13:00:26;;;;;;;9.23;3.97;;;7.10;87.30;;;;;;5011204;28;20454;-78